sensor_id;sensor_type;location;lat;lon;timestamp;temperature;humidity
20045;DHT22;10183;47.808;9.476;2022-10-23T00:01:33;8.00;99.90
20045;DHT22;10183;47.808;9.476;2022-10-23T00:04:20;8.00;99.90
20045;DHT22;10183;47.808;9.476;2022-10-23T00:06:47;7.90;99.90
20045;DHT22;10183;47.808;9.476;2022-10-23T00:09:16;7.90;99.90
20045;DHT22;10183;47.808;9.476;2022-10-23T00:11:44;8.00;99.90
20045;DHT22;10183;47.808;9.476;2022-10-23T00:14:13;8.10;99.90
20045;DHT22;10183;47.808;9.476;2022-10-23T00:16:39;8.10;99.90
20045;DHT22;10183;47.808;9.476;2022-10-23T00:19:06;8.10;99.90
20045;DHT22;10183;47.808;9.476;2022-10-23T00:21:32;8.10;99.90
20045;DHT22;10183;47.808;9.476;2022-10-23T00:23:58;8.10;99.90
20045;DHT22;10183;47.808;9.476;2022-10-23T00:26:25;8.00;99.90
20045;DHT22;10183;47.808;9.476;2022-10-23T00:28:52;8.10;99.90
20045;DHT22;10183;47.808;9.476;2022-10-23T00:31:20;8.00;99.90
20045;DHT22;10183;47.808;9.476;2022-10-23T00:33:47;8.10;99.90
20045;DHT22;10183;47.808;9.476;2022-10-23T00:36:15;8.00;99.90
20045;DHT22;10183;47.808;9.476;2022-10-23T00:38:41;8.00;99.90
20045;DHT22;10183;47.808;9.476;2022-10-23T00:41:18;8.00;99.90
20045;DHT22;10183;47.808;9.476;2022-10-23T00:46:48;7.90;99.90
20045;DHT22;10183;47.808;9.476;2022-10-23T00:49:15;7.80;99.90
20045;DHT22;10183;47.808;9.476;2022-10-23T00:51:44;7.90;99.90
20045;DHT22;10183;47.808;9.476;2022-10-23T00:54:12;7.90;99.90
20045;DHT22;10183;47.808;9.476;2022-10-23T00:56:41;8.00;99.90
20045;DHT22;10183;47.808;9.476;2022-10-23T00:59:09;8.00;99.90
20045;DHT22;10183;47.808;9.476;2022-10-23T01:01:35;8.10;99.90
20045;DHT22;10183;47.808;9.476;2022-10-23T01:04:03;8.10;99.90
20045;DHT22;10183;47.808;9.476;2022-10-23T01:10:28;7.90;99.90
20045;DHT22;10183;47.808;9.476;2022-10-23T01:20:31;7.70;99.90
20045;DHT22;10183;47.808;9.476;2022-10-23T01:26:14;7.70;99.90
20045;DHT22;10183;47.808;9.476;2022-10-23T01:28:51;7.70;99.90
20045;DHT22;10183;47.808;9.476;2022-10-23T01:31:47;7.70;99.90
20045;DHT22;10183;47.808;9.476;2022-10-23T01:34:19;7.80;99.90
20045;DHT22;10183;47.808;9.476;2022-10-23T01:36:48;7.80;99.90
20045;DHT22;10183;47.808;9.476;2022-10-23T01:39:23;7.70;99.90
20045;DHT22;10183;47.808;9.476;2022-10-23T01:41:59;7.80;99.90
20045;DHT22;10183;47.808;9.476;2022-10-23T01:46:57;7.90;99.90
20045;DHT22;10183;47.808;9.476;2022-10-23T01:49:24;7.90;99.90
20045;DHT22;10183;47.808;9.476;2022-10-23T01:51:54;8.00;99.90
20045;DHT22;10183;47.808;9.476;2022-10-23T01:54:25;8.00;99.90
20045;DHT22;10183;47.808;9.476;2022-10-23T01:56:53;8.10;99.90
20045;DHT22;10183;47.808;9.476;2022-10-23T01:59:28;8.00;99.90
20045;DHT22;10183;47.808;9.476;2022-10-23T02:01:57;7.90;99.90
20045;DHT22;10183;47.808;9.476;2022-10-23T02:04:43;7.70;99.90
20045;DHT22;10183;47.808;9.476;2022-10-23T02:07:10;7.70;99.90
20045;DHT22;10183;47.808;9.476;2022-10-23T02:09:37;7.60;99.90
20045;DHT22;10183;47.808;9.476;2022-10-23T02:12:09;7.70;99.90
20045;DHT22;10183;47.808;9.476;2022-10-23T02:14:53;7.70;99.90
20045;DHT22;10183;47.808;9.476;2022-10-23T02:22:57;7.40;99.90
20045;DHT22;10183;47.808;9.476;2022-10-23T02:25:33;7.40;99.90
20045;DHT22;10183;47.808;9.476;2022-10-23T02:28:04;7.40;99.90
20045;DHT22;10183;47.808;9.476;2022-10-23T02:30:33;7.30;99.90
20045;DHT22;10183;47.808;9.476;2022-10-23T02:33:01;7.40;99.90
20045;DHT22;10183;47.808;9.476;2022-10-23T02:35:27;7.40;99.90
20045;DHT22;10183;47.808;9.476;2022-10-23T02:37:55;7.40;99.90
20045;DHT22;10183;47.808;9.476;2022-10-23T02:40:24;7.40;99.90
20045;DHT22;10183;47.808;9.476;2022-10-23T02:42:58;7.40;99.90
20045;DHT22;10183;47.808;9.476;2022-10-23T02:46:13;7.50;99.90
20045;DHT22;10183;47.808;9.476;2022-10-23T02:48:44;7.50;99.90
20045;DHT22;10183;47.808;9.476;2022-10-23T02:52:15;7.30;99.90
20045;DHT22;10183;47.808;9.476;2022-10-23T02:54:35;7.20;99.90
20045;DHT22;10183;47.808;9.476;2022-10-23T03:05:46;7.20;99.90
20045;DHT22;10183;47.808;9.476;2022-10-23T03:08:13;7.10;99.90
20045;DHT22;10183;47.808;9.476;2022-10-23T03:10:40;7.10;99.90
20045;DHT22;10183;47.808;9.476;2022-10-23T03:13:09;7.10;99.90
20045;DHT22;10183;47.808;9.476;2022-10-23T03:15:35;7.20;99.90
20045;DHT22;10183;47.808;9.476;2022-10-23T03:18:01;7.30;99.90
20045;DHT22;10183;47.808;9.476;2022-10-23T03:20:28;7.20;99.90
20045;DHT22;10183;47.808;9.476;2022-10-23T03:22:54;7.10;99.90
20045;DHT22;10183;47.808;9.476;2022-10-23T03:25:20;7.10;99.90
20045;DHT22;10183;47.808;9.476;2022-10-23T03:27:46;7.10;99.90
20045;DHT22;10183;47.808;9.476;2022-10-23T03:30:14;7.20;99.90
20045;DHT22;10183;47.808;9.476;2022-10-23T03:32:40;7.20;99.90
20045;DHT22;10183;47.808;9.476;2022-10-23T03:35:07;7.10;99.90
20045;DHT22;10183;47.808;9.476;2022-10-23T03:37:33;7.00;99.90
20045;DHT22;10183;47.808;9.476;2022-10-23T03:39:59;7.00;99.90
20045;DHT22;10183;47.808;9.476;2022-10-23T03:42:25;6.90;99.90
20045;DHT22;10183;47.808;9.476;2022-10-23T03:44:51;6.80;99.90
20045;DHT22;10183;47.808;9.476;2022-10-23T03:47:17;6.80;99.90
20045;DHT22;10183;47.808;9.476;2022-10-23T03:49:44;6.80;99.90
20045;DHT22;10183;47.808;9.476;2022-10-23T03:52:10;6.80;99.90
20045;DHT22;10183;47.808;9.476;2022-10-23T03:54:36;6.80;99.90
20045;DHT22;10183;47.808;9.476;2022-10-23T03:57:02;6.90;99.90
20045;DHT22;10183;47.808;9.476;2022-10-23T03:59:28;6.90;99.90
20045;DHT22;10183;47.808;9.476;2022-10-23T04:01:54;6.90;99.90
20045;DHT22;10183;47.808;9.476;2022-10-23T04:04:21;6.80;99.90
20045;DHT22;10183;47.808;9.476;2022-10-23T04:06:47;6.70;99.90
20045;DHT22;10183;47.808;9.476;2022-10-23T04:09:13;6.80;99.90
20045;DHT22;10183;47.808;9.476;2022-10-23T04:11:39;6.80;99.90
20045;DHT22;10183;47.808;9.476;2022-10-23T04:14:05;6.90;99.90
20045;DHT22;10183;47.808;9.476;2022-10-23T04:16:32;6.80;99.90
20045;DHT22;10183;47.808;9.476;2022-10-23T04:18:58;6.80;99.90
20045;DHT22;10183;47.808;9.476;2022-10-23T04:21:24;6.80;99.90
20045;DHT22;10183;47.808;9.476;2022-10-23T04:23:50;6.80;99.90
20045;DHT22;10183;47.808;9.476;2022-10-23T04:26:16;6.70;99.90
20045;DHT22;10183;47.808;9.476;2022-10-23T04:28:42;6.80;99.90
20045;DHT22;10183;47.808;9.476;2022-10-23T04:31:09;6.90;99.90
20045;DHT22;10183;47.808;9.476;2022-10-23T04:33:35;6.80;99.90
20045;DHT22;10183;47.808;9.476;2022-10-23T04:36:01;6.80;99.90
20045;DHT22;10183;47.808;9.476;2022-10-23T04:38:27;6.80;99.90
20045;DHT22;10183;47.808;9.476;2022-10-23T04:40:53;6.70;99.90
20045;DHT22;10183;47.808;9.476;2022-10-23T04:43:19;6.70;99.90
20045;DHT22;10183;47.808;9.476;2022-10-23T04:45:47;6.70;99.90
20045;DHT22;10183;47.808;9.476;2022-10-23T04:48:13;6.60;99.90
20045;DHT22;10183;47.808;9.476;2022-10-23T04:50:39;6.70;99.90
20045;DHT22;10183;47.808;9.476;2022-10-23T04:53:08;6.70;99.90
20045;DHT22;10183;47.808;9.476;2022-10-23T04:55:34;6.60;99.90
20045;DHT22;10183;47.808;9.476;2022-10-23T04:58:00;6.50;99.90
20045;DHT22;10183;47.808;9.476;2022-10-23T05:00:26;6.60;99.90
20045;DHT22;10183;47.808;9.476;2022-10-23T05:02:52;6.70;99.90
20045;DHT22;10183;47.808;9.476;2022-10-23T05:05:19;6.60;99.90
20045;DHT22;10183;47.808;9.476;2022-10-23T05:07:45;6.60;99.90
20045;DHT22;10183;47.808;9.476;2022-10-23T05:10:11;6.70;99.90
20045;DHT22;10183;47.808;9.476;2022-10-23T05:12:37;6.60;99.90
20045;DHT22;10183;47.808;9.476;2022-10-23T05:15:03;6.60;99.90
20045;DHT22;10183;47.808;9.476;2022-10-23T05:17:34;6.60;99.90
20045;DHT22;10183;47.808;9.476;2022-10-23T05:20:06;6.60;99.90
20045;DHT22;10183;47.808;9.476;2022-10-23T05:22:36;6.60;99.90
20045;DHT22;10183;47.808;9.476;2022-10-23T05:25:04;6.60;99.90
20045;DHT22;10183;47.808;9.476;2022-10-23T05:27:30;6.60;99.90
20045;DHT22;10183;47.808;9.476;2022-10-23T05:29:56;6.50;99.90
20045;DHT22;10183;47.808;9.476;2022-10-23T05:32:24;6.50;99.90
20045;DHT22;10183;47.808;9.476;2022-10-23T05:34:52;6.50;99.90
20045;DHT22;10183;47.808;9.476;2022-10-23T05:37:19;6.60;99.90
20045;DHT22;10183;47.808;9.476;2022-10-23T05:39:45;6.50;99.90
20045;DHT22;10183;47.808;9.476;2022-10-23T05:42:11;6.50;99.90
20045;DHT22;10183;47.808;9.476;2022-10-23T05:44:37;6.40;99.90
20045;DHT22;10183;47.808;9.476;2022-10-23T05:47:09;6.40;99.90
20045;DHT22;10183;47.808;9.476;2022-10-23T05:49:35;6.40;99.90
20045;DHT22;10183;47.808;9.476;2022-10-23T05:52:02;6.40;99.90
20045;DHT22;10183;47.808;9.476;2022-10-23T05:54:28;6.40;99.90
20045;DHT22;10183;47.808;9.476;2022-10-23T05:56:54;6.50;99.90
20045;DHT22;10183;47.808;9.476;2022-10-23T05:59:21;6.50;99.90
20045;DHT22;10183;47.808;9.476;2022-10-23T06:01:47;6.60;99.90
20045;DHT22;10183;47.808;9.476;2022-10-23T06:04:13;6.50;99.90
20045;DHT22;10183;47.808;9.476;2022-10-23T06:06:39;6.60;99.90
20045;DHT22;10183;47.808;9.476;2022-10-23T06:09:05;6.50;99.90
20045;DHT22;10183;47.808;9.476;2022-10-23T06:11:31;6.50;99.90
20045;DHT22;10183;47.808;9.476;2022-10-23T06:13:57;6.60;99.90
20045;DHT22;10183;47.808;9.476;2022-10-23T06:16:25;6.70;99.90
20045;DHT22;10183;47.808;9.476;2022-10-23T06:18:52;6.80;99.90
20045;DHT22;10183;47.808;9.476;2022-10-23T06:21:18;6.80;99.90
20045;DHT22;10183;47.808;9.476;2022-10-23T06:23:45;6.80;99.90
20045;DHT22;10183;47.808;9.476;2022-10-23T06:26:13;6.90;99.90
20045;DHT22;10183;47.808;9.476;2022-10-23T06:28:40;6.80;99.90
20045;DHT22;10183;47.808;9.476;2022-10-23T06:31:08;6.80;99.90
20045;DHT22;10183;47.808;9.476;2022-10-23T06:33:35;6.90;99.90
20045;DHT22;10183;47.808;9.476;2022-10-23T06:36:02;7.00;99.90
20045;DHT22;10183;47.808;9.476;2022-10-23T06:38:31;6.90;99.90
20045;DHT22;10183;47.808;9.476;2022-10-23T06:41:03;6.90;99.90
20045;DHT22;10183;47.808;9.476;2022-10-23T06:43:29;6.90;99.90
20045;DHT22;10183;47.808;9.476;2022-10-23T06:45:59;7.00;99.90
20045;DHT22;10183;47.808;9.476;2022-10-23T06:48:26;7.00;99.90
20045;DHT22;10183;47.808;9.476;2022-10-23T06:50:52;7.10;99.90
20045;DHT22;10183;47.808;9.476;2022-10-23T06:53:18;7.20;99.90
20045;DHT22;10183;47.808;9.476;2022-10-23T06:55:44;7.20;99.90
20045;DHT22;10183;47.808;9.476;2022-10-23T06:58:10;7.10;99.90
20045;DHT22;10183;47.808;9.476;2022-10-23T07:00:37;7.10;99.90
20045;DHT22;10183;47.808;9.476;2022-10-23T07:03:04;7.20;99.90
20045;DHT22;10183;47.808;9.476;2022-10-23T07:05:31;7.40;99.90
20045;DHT22;10183;47.808;9.476;2022-10-23T07:07:57;7.20;99.90
20045;DHT22;10183;47.808;9.476;2022-10-23T07:10:24;7.20;99.90
20045;DHT22;10183;47.808;9.476;2022-10-23T07:12:50;7.20;99.90
20045;DHT22;10183;47.808;9.476;2022-10-23T07:15:16;7.40;99.90
20045;DHT22;10183;47.808;9.476;2022-10-23T07:17:42;7.60;99.90
20045;DHT22;10183;47.808;9.476;2022-10-23T07:20:08;7.60;99.90
20045;DHT22;10183;47.808;9.476;2022-10-23T07:22:34;7.60;99.90
20045;DHT22;10183;47.808;9.476;2022-10-23T07:25:01;7.70;99.90
20045;DHT22;10183;47.808;9.476;2022-10-23T07:27:27;7.70;99.90
20045;DHT22;10183;47.808;9.476;2022-10-23T07:29:53;7.60;99.90
20045;DHT22;10183;47.808;9.476;2022-10-23T07:32:19;7.70;99.90
20045;DHT22;10183;47.808;9.476;2022-10-23T07:34:45;7.80;99.90
20045;DHT22;10183;47.808;9.476;2022-10-23T07:37:12;7.90;99.90
20045;DHT22;10183;47.808;9.476;2022-10-23T07:39:38;7.80;99.90
20045;DHT22;10183;47.808;9.476;2022-10-23T07:42:04;7.90;99.90
20045;DHT22;10183;47.808;9.476;2022-10-23T07:44:30;8.10;99.90
20045;DHT22;10183;47.808;9.476;2022-10-23T07:46:56;8.20;99.90
20045;DHT22;10183;47.808;9.476;2022-10-23T07:49:22;8.30;99.90
20045;DHT22;10183;47.808;9.476;2022-10-23T07:51:48;8.40;99.90
20045;DHT22;10183;47.808;9.476;2022-10-23T07:54:15;8.60;99.90
20045;DHT22;10183;47.808;9.476;2022-10-23T07:56:41;8.60;99.90
20045;DHT22;10183;47.808;9.476;2022-10-23T07:59:12;8.70;99.90
20045;DHT22;10183;47.808;9.476;2022-10-23T08:01:39;8.90;99.90
20045;DHT22;10183;47.808;9.476;2022-10-23T08:04:08;9.00;99.90
20045;DHT22;10183;47.808;9.476;2022-10-23T08:06:35;9.20;99.90
20045;DHT22;10183;47.808;9.476;2022-10-23T08:09:01;9.40;99.90
20045;DHT22;10183;47.808;9.476;2022-10-23T08:11:27;9.60;99.90
20045;DHT22;10183;47.808;9.476;2022-10-23T08:14:01;9.80;99.90
20045;DHT22;10183;47.808;9.476;2022-10-23T08:16:33;10.00;99.90
20045;DHT22;10183;47.808;9.476;2022-10-23T08:19:00;10.30;99.90
20045;DHT22;10183;47.808;9.476;2022-10-23T08:21:26;10.30;99.90
20045;DHT22;10183;47.808;9.476;2022-10-23T08:23:57;10.40;99.90
20045;DHT22;10183;47.808;9.476;2022-10-23T08:26:24;10.50;99.90
20045;DHT22;10183;47.808;9.476;2022-10-23T08:28:51;10.70;99.90
20045;DHT22;10183;47.808;9.476;2022-10-23T08:31:19;11.00;99.90
20045;DHT22;10183;47.808;9.476;2022-10-23T08:33:46;11.30;99.90
20045;DHT22;10183;47.808;9.476;2022-10-23T08:36:19;11.50;99.90
20045;DHT22;10183;47.808;9.476;2022-10-23T08:38:45;11.60;99.90
20045;DHT22;10183;47.808;9.476;2022-10-23T08:51:56;12.40;99.90
20045;DHT22;10183;47.808;9.476;2022-10-23T08:54:34;12.70;99.90
20045;DHT22;10183;47.808;9.476;2022-10-23T08:57:12;12.90;99.90
20045;DHT22;10183;47.808;9.476;2022-10-23T08:59:48;13.20;99.90
20045;DHT22;10183;47.808;9.476;2022-10-23T09:02:25;13.40;99.90
20045;DHT22;10183;47.808;9.476;2022-10-23T09:04:54;13.70;99.90
20045;DHT22;10183;47.808;9.476;2022-10-23T09:12:51;14.30;99.90
20045;DHT22;10183;47.808;9.476;2022-10-23T09:15:38;14.70;99.90
20045;DHT22;10183;47.808;9.476;2022-10-23T09:18:11;15.00;99.90
20045;DHT22;10183;47.808;9.476;2022-10-23T09:20:39;15.10;99.90
20045;DHT22;10183;47.808;9.476;2022-10-23T09:23:17;15.20;99.90
20045;DHT22;10183;47.808;9.476;2022-10-23T09:25:45;15.40;99.90
20045;DHT22;10183;47.808;9.476;2022-10-23T09:28:29;15.50;99.90
20045;DHT22;10183;47.808;9.476;2022-10-23T09:31:08;15.80;99.90
20045;DHT22;10183;47.808;9.476;2022-10-23T09:33:35;16.20;99.90
20045;DHT22;10183;47.808;9.476;2022-10-23T09:36:27;16.50;99.90
20045;DHT22;10183;47.808;9.476;2022-10-23T09:38:56;16.60;99.90
20045;DHT22;10183;47.808;9.476;2022-10-23T09:41:37;16.90;99.90
20045;DHT22;10183;47.808;9.476;2022-10-23T09:46:47;17.10;99.90
20045;DHT22;10183;47.808;9.476;2022-10-23T09:49:22;16.80;99.90
20045;DHT22;10183;47.808;9.476;2022-10-23T09:54:45;17.30;99.90
20045;DHT22;10183;47.808;9.476;2022-10-23T09:57:41;17.10;99.90
20045;DHT22;10183;47.808;9.476;2022-10-23T10:00:18;16.40;99.90
20045;DHT22;10183;47.808;9.476;2022-10-23T10:05:33;16.00;99.90
20045;DHT22;10183;47.808;9.476;2022-10-23T10:10:54;16.70;99.90
20045;DHT22;10183;47.808;9.476;2022-10-23T10:16:32;17.20;99.90
20045;DHT22;10183;47.808;9.476;2022-10-23T10:24:45;17.10;99.90
20045;DHT22;10183;47.808;9.476;2022-10-23T10:30:22;17.10;99.90
20045;DHT22;10183;47.808;9.476;2022-10-23T10:35:42;17.20;99.90
20045;DHT22;10183;47.808;9.476;2022-10-23T10:47:37;17.80;99.90
20045;DHT22;10183;47.808;9.476;2022-10-23T10:53:45;18.00;99.90
20045;DHT22;10183;47.808;9.476;2022-10-23T10:56:17;18.40;99.90
20045;DHT22;10183;47.808;9.476;2022-10-23T11:01:22;17.70;99.90
20045;DHT22;10183;47.808;9.476;2022-10-23T11:04:12;18.50;99.90
20045;DHT22;10183;47.808;9.476;2022-10-23T11:06:40;19.30;99.90
20045;DHT22;10183;47.808;9.476;2022-10-23T11:09:25;19.80;99.90
20045;DHT22;10183;47.808;9.476;2022-10-23T11:11:52;20.40;99.90
20045;DHT22;10183;47.808;9.476;2022-10-23T11:14:25;20.80;99.90
20045;DHT22;10183;47.808;9.476;2022-10-23T11:17:16;21.20;99.90
20045;DHT22;10183;47.808;9.476;2022-10-23T11:20:37;21.80;99.90
20045;DHT22;10183;47.808;9.476;2022-10-23T11:22:48;22.00;99.90
20045;DHT22;10183;47.808;9.476;2022-10-23T11:33:51;22.10;99.90
20045;DHT22;10183;47.808;9.476;2022-10-23T11:36:53;23.90;99.90
20045;DHT22;10183;47.808;9.476;2022-10-23T11:39:28;26.50;99.90
20045;DHT22;10183;47.808;9.476;2022-10-23T11:44:47;29.10;94.70
20045;DHT22;10183;47.808;9.476;2022-10-23T11:52:53;29.40;85.70
20045;DHT22;10183;47.808;9.476;2022-10-23T11:55:26;26.60;96.40
20045;DHT22;10183;47.808;9.476;2022-10-23T11:58:14;25.80;99.90
20045;DHT22;10183;47.808;9.476;2022-10-23T12:01:04;23.80;99.90
20045;DHT22;10183;47.808;9.476;2022-10-23T12:06:31;21.40;99.90
20045;DHT22;10183;47.808;9.476;2022-10-23T12:09:06;20.90;99.90
20045;DHT22;10183;47.808;9.476;2022-10-23T12:11:43;20.80;99.90
20045;DHT22;10183;47.808;9.476;2022-10-23T12:17:02;19.70;99.90
20045;DHT22;10183;47.808;9.476;2022-10-23T12:19:48;19.50;99.90
20045;DHT22;10183;47.808;9.476;2022-10-23T12:22:15;19.40;99.90
20045;DHT22;10183;47.808;9.476;2022-10-23T12:30:22;18.70;99.90
20045;DHT22;10183;47.808;9.476;2022-10-23T12:33:01;18.70;99.90
20045;DHT22;10183;47.808;9.476;2022-10-23T12:38:28;18.80;99.90
20045;DHT22;10183;47.808;9.476;2022-10-23T12:41:32;18.70;99.90
20045;DHT22;10183;47.808;9.476;2022-10-23T12:44:02;18.50;99.90
20045;DHT22;10183;47.808;9.476;2022-10-23T12:46:35;18.60;99.90
20045;DHT22;10183;47.808;9.476;2022-10-23T12:49:13;18.70;99.90
20045;DHT22;10183;47.808;9.476;2022-10-23T12:51:39;18.90;99.90
20045;DHT22;10183;47.808;9.476;2022-10-23T12:54:17;19.10;99.90
20045;DHT22;10183;47.808;9.476;2022-10-23T12:56:45;19.10;99.90
20045;DHT22;10183;47.808;9.476;2022-10-23T12:59:23;19.30;99.90
20045;DHT22;10183;47.808;9.476;2022-10-23T13:01:52;19.70;99.90
20045;DHT22;10183;47.808;9.476;2022-10-23T13:06:59;20.50;99.90
20045;DHT22;10183;47.808;9.476;2022-10-23T13:09:31;20.80;99.90
20045;DHT22;10183;47.808;9.476;2022-10-23T13:11:59;20.70;99.90
20045;DHT22;10183;47.808;9.476;2022-10-23T13:14:34;21.00;99.90
20045;DHT22;10183;47.808;9.476;2022-10-23T13:17:04;21.00;99.90
20045;DHT22;10183;47.808;9.476;2022-10-23T13:19:31;20.10;99.90
20045;DHT22;10183;47.808;9.476;2022-10-23T13:21:58;20.00;99.90
20045;DHT22;10183;47.808;9.476;2022-10-23T13:24:27;19.40;99.90
20045;DHT22;10183;47.808;9.476;2022-10-23T13:26:54;18.80;99.90
20045;DHT22;10183;47.808;9.476;2022-10-23T13:29:28;19.00;99.90
20045;DHT22;10183;47.808;9.476;2022-10-23T13:31:57;18.80;99.90
20045;DHT22;10183;47.808;9.476;2022-10-23T13:34:34;19.00;99.90
20045;DHT22;10183;47.808;9.476;2022-10-23T13:39:45;18.50;99.90
20045;DHT22;10183;47.808;9.476;2022-10-23T13:42:13;17.90;99.90
20045;DHT22;10183;47.808;9.476;2022-10-23T13:44:40;17.50;99.90
20045;DHT22;10183;47.808;9.476;2022-10-23T13:47:11;17.30;99.90
20045;DHT22;10183;47.808;9.476;2022-10-23T13:49:38;17.50;99.90
20045;DHT22;10183;47.808;9.476;2022-10-23T13:52:04;17.50;99.90
20045;DHT22;10183;47.808;9.476;2022-10-23T13:54:34;17.70;99.90
20045;DHT22;10183;47.808;9.476;2022-10-23T13:57:00;17.50;99.90
20045;DHT22;10183;47.808;9.476;2022-10-23T13:59:26;17.70;99.90
20045;DHT22;10183;47.808;9.476;2022-10-23T14:01:52;17.40;99.90
20045;DHT22;10183;47.808;9.476;2022-10-23T14:04:19;17.00;99.90
20045;DHT22;10183;47.808;9.476;2022-10-23T14:06:45;17.00;99.90
20045;DHT22;10183;47.808;9.476;2022-10-23T14:09:14;17.00;99.90
20045;DHT22;10183;47.808;9.476;2022-10-23T14:11:41;17.20;99.90
20045;DHT22;10183;47.808;9.476;2022-10-23T14:14:07;17.00;99.90
20045;DHT22;10183;47.808;9.476;2022-10-23T14:16:34;17.20;99.90
20045;DHT22;10183;47.808;9.476;2022-10-23T14:19:00;17.00;99.90
20045;DHT22;10183;47.808;9.476;2022-10-23T14:21:26;16.80;99.90
20045;DHT22;10183;47.808;9.476;2022-10-23T14:23:53;16.90;99.90
20045;DHT22;10183;47.808;9.476;2022-10-23T14:26:22;17.10;99.90
20045;DHT22;10183;47.808;9.476;2022-10-23T14:28:51;17.30;99.90
20045;DHT22;10183;47.808;9.476;2022-10-23T14:31:18;17.30;99.90
20045;DHT22;10183;47.808;9.476;2022-10-23T14:33:45;17.50;99.90
20045;DHT22;10183;47.808;9.476;2022-10-23T14:36:12;17.60;99.90
20045;DHT22;10183;47.808;9.476;2022-10-23T14:38:38;17.20;99.90
20045;DHT22;10183;47.808;9.476;2022-10-23T14:41:12;16.90;99.90
20045;DHT22;10183;47.808;9.476;2022-10-23T14:43:39;16.60;99.90
20045;DHT22;10183;47.808;9.476;2022-10-23T14:46:24;16.70;99.90
20045;DHT22;10183;47.808;9.476;2022-10-23T14:48:51;17.00;99.90
20045;DHT22;10183;47.808;9.476;2022-10-23T14:51:24;17.10;99.90
20045;DHT22;10183;47.808;9.476;2022-10-23T14:53:58;16.50;99.90
20045;DHT22;10183;47.808;9.476;2022-10-23T14:56:27;16.30;99.90
20045;DHT22;10183;47.808;9.476;2022-10-23T14:58:54;16.30;99.90
20045;DHT22;10183;47.808;9.476;2022-10-23T15:01:38;16.30;99.90
20045;DHT22;10183;47.808;9.476;2022-10-23T15:04:05;16.20;99.90
20045;DHT22;10183;47.808;9.476;2022-10-23T15:06:33;16.40;99.90
20045;DHT22;10183;47.808;9.476;2022-10-23T15:08:59;16.20;99.90
20045;DHT22;10183;47.808;9.476;2022-10-23T15:11:26;16.20;99.90
20045;DHT22;10183;47.808;9.476;2022-10-23T15:13:52;16.40;99.90
20045;DHT22;10183;47.808;9.476;2022-10-23T15:16:22;16.50;99.90
20045;DHT22;10183;47.808;9.476;2022-10-23T15:18:48;16.70;99.90
20045;DHT22;10183;47.808;9.476;2022-10-23T15:21:15;16.70;99.90
20045;DHT22;10183;47.808;9.476;2022-10-23T15:23:43;16.70;99.90
20045;DHT22;10183;47.808;9.476;2022-10-23T15:26:18;16.20;99.90
20045;DHT22;10183;47.808;9.476;2022-10-23T15:28:59;16.10;99.90
20045;DHT22;10183;47.808;9.476;2022-10-23T15:33:56;16.10;99.90
20045;DHT22;10183;47.808;9.476;2022-10-23T15:36:23;16.20;99.90
20045;DHT22;10183;47.808;9.476;2022-10-23T15:38:50;16.30;99.90
20045;DHT22;10183;47.808;9.476;2022-10-23T15:41:33;16.40;99.90
20045;DHT22;10183;47.808;9.476;2022-10-23T15:44:01;16.40;99.90
20045;DHT22;10183;47.808;9.476;2022-10-23T15:46:28;15.90;99.90
20045;DHT22;10183;47.808;9.476;2022-10-23T15:48:54;15.90;99.90
20045;DHT22;10183;47.808;9.476;2022-10-23T15:51:21;15.80;99.90
20045;DHT22;10183;47.808;9.476;2022-10-23T15:53:47;15.80;99.90
20045;DHT22;10183;47.808;9.476;2022-10-23T15:56:14;15.80;99.90
20045;DHT22;10183;47.808;9.476;2022-10-23T15:58:40;15.60;99.90
20045;DHT22;10183;47.808;9.476;2022-10-23T16:01:06;15.40;99.90
20045;DHT22;10183;47.808;9.476;2022-10-23T16:03:36;15.60;99.90
20045;DHT22;10183;47.808;9.476;2022-10-23T16:06:08;15.60;99.90
20045;DHT22;10183;47.808;9.476;2022-10-23T16:08:35;15.70;99.90
20045;DHT22;10183;47.808;9.476;2022-10-23T16:11:03;15.50;99.90
20045;DHT22;10183;47.808;9.476;2022-10-23T16:13:29;15.30;99.90
20045;DHT22;10183;47.808;9.476;2022-10-23T16:15:55;15.30;99.90
20045;DHT22;10183;47.808;9.476;2022-10-23T16:18:22;15.50;99.90
20045;DHT22;10183;47.808;9.476;2022-10-23T16:20:48;15.60;99.90
20045;DHT22;10183;47.808;9.476;2022-10-23T16:23:20;15.60;99.90
20045;DHT22;10183;47.808;9.476;2022-10-23T16:25:46;15.60;99.90
20045;DHT22;10183;47.808;9.476;2022-10-23T16:28:12;15.50;99.90
20045;DHT22;10183;47.808;9.476;2022-10-23T16:30:41;15.50;99.90
20045;DHT22;10183;47.808;9.476;2022-10-23T16:33:09;15.50;99.90
20045;DHT22;10183;47.808;9.476;2022-10-23T16:35:36;15.40;99.90
20045;DHT22;10183;47.808;9.476;2022-10-23T16:38:03;15.30;99.90
20045;DHT22;10183;47.808;9.476;2022-10-23T16:40:30;15.20;99.90
20045;DHT22;10183;47.808;9.476;2022-10-23T16:42:56;15.10;99.90
20045;DHT22;10183;47.808;9.476;2022-10-23T16:45:23;15.00;99.90
20045;DHT22;10183;47.808;9.476;2022-10-23T16:47:49;14.90;99.90
20045;DHT22;10183;47.808;9.476;2022-10-23T16:50:16;14.80;99.90
20045;DHT22;10183;47.808;9.476;2022-10-23T16:52:42;14.70;99.90
20045;DHT22;10183;47.808;9.476;2022-10-23T16:55:08;14.60;99.90
20045;DHT22;10183;47.808;9.476;2022-10-23T16:57:35;14.40;99.90
20045;DHT22;10183;47.808;9.476;2022-10-23T17:00:01;14.40;99.90
20045;DHT22;10183;47.808;9.476;2022-10-23T17:02:27;14.20;99.90
20045;DHT22;10183;47.808;9.476;2022-10-23T17:04:53;14.10;99.90
20045;DHT22;10183;47.808;9.476;2022-10-23T17:07:19;14.00;99.90
20045;DHT22;10183;47.808;9.476;2022-10-23T17:09:48;14.00;99.90
20045;DHT22;10183;47.808;9.476;2022-10-23T17:12:15;14.00;99.90
20045;DHT22;10183;47.808;9.476;2022-10-23T17:14:41;14.00;99.90
20045;DHT22;10183;47.808;9.476;2022-10-23T17:17:08;13.90;99.90
20045;DHT22;10183;47.808;9.476;2022-10-23T17:19:35;13.80;99.90
20045;DHT22;10183;47.808;9.476;2022-10-23T17:22:06;13.80;99.90
20045;DHT22;10183;47.808;9.476;2022-10-23T17:24:39;13.70;99.90
20045;DHT22;10183;47.808;9.476;2022-10-23T17:27:06;13.60;99.90
20045;DHT22;10183;47.808;9.476;2022-10-23T17:29:32;13.60;99.90
20045;DHT22;10183;47.808;9.476;2022-10-23T17:31:59;13.60;99.90
20045;DHT22;10183;47.808;9.476;2022-10-23T17:34:25;13.60;99.90
20045;DHT22;10183;47.808;9.476;2022-10-23T17:36:53;13.70;99.90
20045;DHT22;10183;47.808;9.476;2022-10-23T17:39:23;13.80;99.90
20045;DHT22;10183;47.808;9.476;2022-10-23T17:41:50;13.80;99.90
20045;DHT22;10183;47.808;9.476;2022-10-23T17:44:16;13.70;99.90
20045;DHT22;10183;47.808;9.476;2022-10-23T17:46:43;13.70;99.90
20045;DHT22;10183;47.808;9.476;2022-10-23T17:49:10;13.70;99.90
20045;DHT22;10183;47.808;9.476;2022-10-23T17:51:36;13.70;99.90
20045;DHT22;10183;47.808;9.476;2022-10-23T17:54:08;13.70;99.90
20045;DHT22;10183;47.808;9.476;2022-10-23T17:56:35;13.70;99.90
20045;DHT22;10183;47.808;9.476;2022-10-23T17:59:10;13.70;99.90
20045;DHT22;10183;47.808;9.476;2022-10-23T18:01:37;13.70;99.90
20045;DHT22;10183;47.808;9.476;2022-10-23T18:04:06;13.80;99.90